createdAt,value
2019-03-19T00:00:40.075Z,99.90
2019-03-19T00:03:09.652Z,99.90
2019-03-19T00:05:39.015Z,99.90
2019-03-19T00:08:08.674Z,99.90
2019-03-19T00:10:38.185Z,99.90
2019-03-19T00:13:07.662Z,99.90
2019-03-19T00:15:37.027Z,99.90
2019-03-19T00:18:06.682Z,99.90
2019-03-19T00:20:36.179Z,99.90
2019-03-19T00:23:05.685Z,99.90
2019-03-19T00:25:35.104Z,99.90
2019-03-19T00:28:04.693Z,99.90
2019-03-19T00:30:34.119Z,99.90
2019-03-19T00:33:03.751Z,99.90
2019-03-19T00:35:33.175Z,99.90
2019-03-19T00:38:02.747Z,99.90
2019-03-19T00:40:32.106Z,99.90
2019-03-19T00:43:01.768Z,99.90
2019-03-19T00:45:31.210Z,99.90
2019-03-19T00:48:00.905Z,99.90
2019-03-19T00:50:30.510Z,99.90
2019-03-19T00:53:00.871Z,99.90
2019-03-19T00:55:40.207Z,99.90
2019-03-19T00:58:01.803Z,99.90
2019-03-19T01:00:31.152Z,99.90
2019-03-19T01:03:00.920Z,99.90
2019-03-19T01:05:30.590Z,99.90
2019-03-19T01:08:01.125Z,99.90
2019-03-19T01:10:30.604Z,99.90
2019-03-19T01:13:00.865Z,99.90
2019-03-19T01:15:30.550Z,99.90
2019-03-19T01:18:00.906Z,99.90
2019-03-19T01:20:30.580Z,99.90
2019-03-19T01:23:00.903Z,99.90
2019-03-19T01:25:30.576Z,99.90
2019-03-19T01:28:00.906Z,99.90
2019-03-19T01:30:30.259Z,99.90
2019-03-19T01:33:00.927Z,99.90
2019-03-19T01:35:30.683Z,99.90
2019-03-19T01:38:00.934Z,99.90
2019-03-19T01:40:30.303Z,99.90
2019-03-19T01:43:00.943Z,99.90
2019-03-19T01:45:30.687Z,99.90
2019-03-19T01:48:00.951Z,99.90
2019-03-19T01:50:30.631Z,99.90
2019-03-19T01:53:00.968Z,99.90
2019-03-19T01:55:30.635Z,99.90
2019-03-19T01:58:00.931Z,99.90
2019-03-19T02:00:30.315Z,99.90
2019-03-19T02:03:00.972Z,99.90
2019-03-19T02:05:30.755Z,99.90
2019-03-19T02:08:00.947Z,99.90
2019-03-19T02:10:30.331Z,99.90
2019-03-19T02:13:00.964Z,99.90
2019-03-19T02:15:30.763Z,99.90
2019-03-19T02:18:00.949Z,99.90
2019-03-19T02:20:30.678Z,99.90
2019-03-19T02:23:00.972Z,99.90
2019-03-19T02:25:30.742Z,99.90
2019-03-19T02:28:00.982Z,99.90
2019-03-19T02:30:30.769Z,99.90
2019-03-19T02:33:00.978Z,99.90
2019-03-19T02:35:32.059Z,99.90
2019-03-19T02:38:01.762Z,99.90
2019-03-19T02:40:31.302Z,99.90
2019-03-19T02:43:01.037Z,99.90
2019-03-19T02:45:30.778Z,99.90
2019-03-19T02:48:01.009Z,99.90
2019-03-19T02:50:30.812Z,99.90
2019-03-19T02:53:01.123Z,99.90
2019-03-19T02:55:30.889Z,99.90
2019-03-19T02:58:01.091Z,99.90
2019-03-19T03:00:30.803Z,99.90
2019-03-19T03:03:01.051Z,99.90
2019-03-19T03:05:30.827Z,99.90
2019-03-19T03:08:01.040Z,99.90
2019-03-19T03:10:30.775Z,99.90
2019-03-19T03:13:01.047Z,99.90
2019-03-19T03:15:30.780Z,99.90
2019-03-19T03:18:01.030Z,99.90
2019-03-19T03:20:30.817Z,99.90
2019-03-19T03:23:01.036Z,99.90
2019-03-19T03:25:30.422Z,99.90
2019-03-19T03:28:01.068Z,99.90
2019-03-19T03:30:30.457Z,99.90
2019-03-19T03:33:01.081Z,99.90
2019-03-19T03:35:30.833Z,99.90
2019-03-19T03:38:01.223Z,99.90
2019-03-19T03:40:30.857Z,99.90
2019-03-19T03:43:01.084Z,99.90
2019-03-19T03:45:30.553Z,99.90
2019-03-19T03:48:01.104Z,99.90
2019-03-19T03:50:30.824Z,99.90
2019-03-19T03:53:01.110Z,99.90
2019-03-19T03:55:31.346Z,99.90
2019-03-19T03:58:01.185Z,99.90
2019-03-19T04:00:30.905Z,99.90
2019-03-19T04:03:01.120Z,99.90
2019-03-19T04:05:30.560Z,99.90
2019-03-19T04:08:01.133Z,99.90
2019-03-19T04:10:30.987Z,99.90
2019-03-19T04:13:01.209Z,99.90
2019-03-19T04:15:30.943Z,99.90
2019-03-19T04:18:01.174Z,99.90
2019-03-19T04:20:30.921Z,99.90
2019-03-19T04:23:01.201Z,99.90
2019-03-19T04:25:30.923Z,99.90
2019-03-19T04:28:01.214Z,99.90
2019-03-19T04:30:31.016Z,99.90
2019-03-19T04:33:01.873Z,99.90
2019-03-19T04:35:31.540Z,99.90
2019-03-19T04:38:01.238Z,99.90
2019-03-19T04:40:31.043Z,99.90
2019-03-19T04:43:01.196Z,99.90
2019-03-19T04:45:30.982Z,99.90
2019-03-19T04:48:03.509Z,99.90
2019-03-19T04:50:32.394Z,99.90
2019-03-19T04:53:02.171Z,99.90
2019-03-19T04:55:31.622Z,99.90
2019-03-19T04:58:01.290Z,99.90
2019-03-19T05:00:30.976Z,99.90
2019-03-19T05:03:01.234Z,99.90
2019-03-19T05:05:31.117Z,99.90
2019-03-19T05:08:01.279Z,99.90
2019-03-19T05:10:30.975Z,99.90
2019-03-19T05:13:01.169Z,99.90
2019-03-19T05:15:30.986Z,99.90
2019-03-19T05:18:01.235Z,99.90
2019-03-19T05:20:30.986Z,99.90
2019-03-19T05:23:01.272Z,99.90
2019-03-19T05:25:30.652Z,99.90
2019-03-19T05:28:01.248Z,99.90
2019-03-19T05:30:31.020Z,99.90
2019-03-19T05:33:01.273Z,99.90
2019-03-19T05:35:31.015Z,99.90
2019-03-19T05:38:01.271Z,99.90
2019-03-19T05:40:30.966Z,99.90
2019-03-19T05:43:01.303Z,99.90
2019-03-19T05:45:31.064Z,99.90
2019-03-19T05:48:01.306Z,99.90
2019-03-19T05:50:30.978Z,99.90
2019-03-19T05:53:01.352Z,99.90
2019-03-19T05:55:30.991Z,99.90
2019-03-19T05:58:01.334Z,99.90
2019-03-19T06:00:32.866Z,99.90
2019-03-19T06:03:02.290Z,99.90
2019-03-19T06:05:31.741Z,99.90
2019-03-19T06:08:01.477Z,99.90
2019-03-19T06:10:31.548Z,99.90
2019-03-19T06:13:01.622Z,99.90
2019-03-19T06:15:31.152Z,99.90
2019-03-19T06:18:01.369Z,99.90
2019-03-19T06:20:31.119Z,99.90
2019-03-19T06:23:01.414Z,99.90
2019-03-19T06:25:31.169Z,99.90
2019-03-19T06:28:01.402Z,99.90
2019-03-19T06:30:31.391Z,99.90
2019-03-19T06:33:01.431Z,99.90
2019-03-19T06:35:31.130Z,99.90
2019-03-19T06:38:01.564Z,99.90
2019-03-19T06:40:31.237Z,99.90
2019-03-19T06:43:01.477Z,99.90
2019-03-19T06:45:31.151Z,99.90
2019-03-19T06:48:01.458Z,99.90
2019-03-19T06:50:31.172Z,99.90
2019-03-19T06:53:01.411Z,99.90
2019-03-19T06:55:31.140Z,99.90
2019-03-19T06:58:10.463Z,99.90
2019-03-19T07:00:32.745Z,99.90
2019-03-19T07:03:02.396Z,99.90
2019-03-19T07:05:32.097Z,99.90
2019-03-19T07:08:01.660Z,99.90
2019-03-19T07:10:31.191Z,99.90
2019-03-19T07:13:01.454Z,99.90
2019-03-19T07:15:31.308Z,99.90
2019-03-19T07:18:01.417Z,99.90
2019-03-19T07:20:32.846Z,99.90
2019-03-19T07:23:02.470Z,99.90
2019-03-19T07:25:32.162Z,99.90
2019-03-19T07:28:01.807Z,99.90
2019-03-19T07:30:31.213Z,99.90
2019-03-19T07:33:01.453Z,99.90
2019-03-19T07:35:31.193Z,99.90
2019-03-19T07:38:01.495Z,99.90
2019-03-19T07:40:31.187Z,99.90
2019-03-19T07:43:01.543Z,99.90
2019-03-19T07:45:31.219Z,99.90
2019-03-19T07:48:01.487Z,99.90
2019-03-19T07:50:31.214Z,99.90
2019-03-19T07:53:01.511Z,99.90
2019-03-19T07:55:31.251Z,99.90
2019-03-19T07:58:01.537Z,99.90
2019-03-19T08:00:31.306Z,99.90
2019-03-19T08:03:01.611Z,99.90
2019-03-19T08:05:33.360Z,99.90
2019-03-19T08:08:02.494Z,99.90
2019-03-19T08:10:32.270Z,99.90
2019-03-19T08:13:01.834Z,99.90
2019-03-19T08:15:31.311Z,99.90
2019-03-19T08:18:01.734Z,99.90
2019-03-19T08:20:32.506Z,99.90
2019-03-19T08:23:02.344Z,99.90
2019-03-19T08:25:31.851Z,99.90
2019-03-19T08:28:01.607Z,99.90
2019-03-19T08:30:31.312Z,99.90
2019-03-19T08:33:01.617Z,99.90
2019-03-19T08:35:31.305Z,99.90
2019-03-19T08:38:01.580Z,99.90
2019-03-19T08:40:31.363Z,99.90
2019-03-19T08:43:01.503Z,99.90
2019-03-19T08:45:31.329Z,99.90
2019-03-19T08:48:01.558Z,99.90
2019-03-19T08:50:31.335Z,99.90
2019-03-19T08:53:01.676Z,99.90
2019-03-19T08:55:31.323Z,99.90
2019-03-19T08:58:01.553Z,99.90
2019-03-19T09:00:31.379Z,99.90
2019-03-19T09:03:01.581Z,99.90
2019-03-19T09:05:31.360Z,99.90
2019-03-19T09:08:01.514Z,99.90
2019-03-19T09:10:31.362Z,99.90
2019-03-19T09:13:01.581Z,99.90
2019-03-19T09:15:31.410Z,99.90
2019-03-19T09:18:01.593Z,99.90
2019-03-19T09:20:31.297Z,99.90
2019-03-19T09:23:01.613Z,99.90
2019-03-19T09:25:31.369Z,99.90
2019-03-19T09:28:01.626Z,99.90
2019-03-19T09:30:31.294Z,99.90
2019-03-19T09:33:01.640Z,99.90
2019-03-19T09:35:31.405Z,99.90
2019-03-19T09:38:01.613Z,99.90
2019-03-19T09:40:31.366Z,99.90
2019-03-19T09:43:01.839Z,99.90
2019-03-19T09:45:31.536Z,99.90
2019-03-19T09:48:01.710Z,99.90
2019-03-19T09:50:31.385Z,99.90
2019-03-19T09:53:01.976Z,99.90
2019-03-19T09:55:31.419Z,99.90
2019-03-19T09:58:01.648Z,99.90
2019-03-19T10:00:31.848Z,99.90
2019-03-19T10:03:01.676Z,99.90
2019-03-19T10:05:31.459Z,99.90
2019-03-19T10:08:01.639Z,99.90
2019-03-19T10:10:31.450Z,99.90
2019-03-19T10:13:01.638Z,99.90
2019-03-19T10:15:31.424Z,99.90
2019-03-19T10:18:01.737Z,99.90
2019-03-19T10:20:31.422Z,99.90
2019-03-19T10:23:01.631Z,99.90
2019-03-19T10:25:31.413Z,99.90
2019-03-19T10:28:01.753Z,99.90
2019-03-19T10:30:31.449Z,99.90
2019-03-19T10:33:01.648Z,99.90
2019-03-19T10:35:31.367Z,99.90
2019-03-19T10:38:01.655Z,99.90
2019-03-19T10:40:31.441Z,99.30
2019-03-19T10:43:01.667Z,99.90
2019-03-19T10:45:31.129Z,99.90
2019-03-19T10:48:01.705Z,99.90
2019-03-19T10:50:31.698Z,99.10
2019-03-19T10:53:02.215Z,96.00
2019-03-19T10:55:32.243Z,95.20
2019-03-19T10:58:10.644Z,92.90
2019-03-19T11:00:33.759Z,94.80
2019-03-19T11:03:03.535Z,93.10
2019-03-19T11:05:33.087Z,92.10
2019-03-19T11:08:02.719Z,91.60
2019-03-19T11:10:32.899Z,91.20
2019-03-19T11:13:02.875Z,86.90
2019-03-19T11:15:32.595Z,87.20
2019-03-19T11:18:02.084Z,91.30
2019-03-19T11:20:31.967Z,93.00
2019-03-19T11:23:01.969Z,93.30
2019-03-19T11:25:31.543Z,90.00
2019-03-19T11:28:01.743Z,88.40
2019-03-19T11:30:31.797Z,90.40
2019-03-19T11:33:01.669Z,95.60
2019-03-19T11:35:31.061Z,98.00
2019-03-19T11:38:01.487Z,98.70
2019-03-19T11:40:31.128Z,98.80
2019-03-19T11:43:01.752Z,98.10
2019-03-19T11:45:31.487Z,97.70
2019-03-19T11:48:01.758Z,95.60
2019-03-19T11:50:33.437Z,95.40
2019-03-19T11:53:02.738Z,94.50
2019-03-19T11:55:32.198Z,90.20
2019-03-19T11:58:01.827Z,87.20
2019-03-19T12:00:45.013Z,87.00
2019-03-19T12:03:16.497Z,85.10
2019-03-19T12:05:45.827Z,79.70
2019-03-19T12:08:15.534Z,75.80
2019-03-19T12:10:44.974Z,76.90
2019-03-19T12:13:14.606Z,74.40
2019-03-19T12:15:43.994Z,73.50
2019-03-19T12:18:13.687Z,75.10
2019-03-19T12:20:43.098Z,77.80
2019-03-19T12:23:12.714Z,76.60
2019-03-19T12:25:42.066Z,75.90
2019-03-19T12:28:11.726Z,78.90
2019-03-19T12:30:41.156Z,76.90
2019-03-19T12:33:10.750Z,76.20
2019-03-19T12:35:40.242Z,77.10
2019-03-19T12:38:09.762Z,79.60
2019-03-19T12:40:39.541Z,82.60
2019-03-19T12:43:08.982Z,80.50
2019-03-19T12:45:38.608Z,73.00
2019-03-19T12:48:08.154Z,65.90
2019-03-19T12:50:37.639Z,72.80
2019-03-19T12:53:07.159Z,74.10
2019-03-19T12:55:36.593Z,99.90
2019-03-19T12:58:06.050Z,76.80
2019-03-19T13:00:35.608Z,72.60
2019-03-19T13:03:05.241Z,99.90
2019-03-19T13:05:34.668Z,99.90
2019-03-19T13:08:04.131Z,78.00
2019-03-19T13:10:33.623Z,70.20
2019-03-19T13:13:03.151Z,86.40
2019-03-19T13:15:32.663Z,77.30
2019-03-19T13:18:02.067Z,66.80
2019-03-19T13:20:31.646Z,65.60
2019-03-19T13:23:01.926Z,57.50
2019-03-19T13:25:31.658Z,53.80
2019-03-19T13:28:01.936Z,51.80
2019-03-19T13:30:44.641Z,47.60
2019-03-19T13:33:05.842Z,47.70
2019-03-19T13:35:35.627Z,49.30
2019-03-19T13:38:05.147Z,51.50
2019-03-19T13:40:34.696Z,52.60
2019-03-19T13:43:04.147Z,54.80
2019-03-19T13:45:33.703Z,56.70
2019-03-19T13:48:03.186Z,57.10
2019-03-19T13:50:32.696Z,57.70
2019-03-19T13:53:02.156Z,60.80
2019-03-19T13:55:31.707Z,62.30
2019-03-19T13:58:01.978Z,63.10
2019-03-19T14:00:31.660Z,61.90
2019-03-19T14:03:01.989Z,59.40
2019-03-19T14:05:31.680Z,59.80
2019-03-19T14:08:02.008Z,59.90
2019-03-19T14:10:31.723Z,58.90
2019-03-19T14:13:02.014Z,58.40
2019-03-19T14:15:31.681Z,57.00
2019-03-19T14:18:02.003Z,56.50
2019-03-19T14:20:31.678Z,53.70
2019-03-19T14:23:02.036Z,48.40
2019-03-19T14:25:31.741Z,46.50
2019-03-19T14:28:02.054Z,43.70
2019-03-19T14:30:31.706Z,40.30
2019-03-19T14:33:02.043Z,35.50
2019-03-19T14:35:37.233Z,32.60
2019-03-19T14:38:03.010Z,29.70
2019-03-19T14:40:32.709Z,27.40
2019-03-19T14:43:02.124Z,26.80
2019-03-19T14:45:31.772Z,26.10
2019-03-19T14:48:02.046Z,27.70
2019-03-19T14:50:31.715Z,29.90
2019-03-19T14:53:02.062Z,33.40
2019-03-19T14:55:31.735Z,36.00
2019-03-19T14:58:02.062Z,35.60
2019-03-19T15:00:31.796Z,34.00
2019-03-19T15:03:02.075Z,31.90
2019-03-19T15:05:31.799Z,31.00
2019-03-19T15:08:02.089Z,29.60
2019-03-19T15:10:31.747Z,28.70
2019-03-19T15:13:02.077Z,27.50
2019-03-19T15:15:31.804Z,27.80
2019-03-19T15:18:02.066Z,28.70
2019-03-19T15:20:31.847Z,29.40
2019-03-19T15:23:02.076Z,31.10
2019-03-19T15:25:31.842Z,32.40
2019-03-19T15:28:02.064Z,35.30
2019-03-19T15:30:31.471Z,36.30
2019-03-19T15:33:02.086Z,37.60
2019-03-19T15:35:31.815Z,37.70
2019-03-19T15:38:02.094Z,37.90
2019-03-19T15:40:31.850Z,36.10
2019-03-19T15:43:02.078Z,33.60
2019-03-19T15:45:31.821Z,34.30
2019-03-19T15:48:02.080Z,36.50
2019-03-19T15:50:31.497Z,39.50
2019-03-19T15:53:02.108Z,41.20
2019-03-19T15:55:31.843Z,42.80
2019-03-19T15:58:02.118Z,45.50
2019-03-19T16:00:31.915Z,46.80
2019-03-19T16:03:02.130Z,47.10
2019-03-19T16:05:31.867Z,48.10
2019-03-19T16:08:02.234Z,47.00
2019-03-19T16:10:31.907Z,45.50
2019-03-19T16:13:02.201Z,44.30
2019-03-19T16:15:32.027Z,43.30
2019-03-19T16:18:02.649Z,42.10
2019-03-19T16:20:32.411Z,41.50
2019-03-19T16:23:02.410Z,39.80
2019-03-19T16:25:32.090Z,38.70
2019-03-19T16:28:02.520Z,37.80
2019-03-19T16:30:32.032Z,37.90
2019-03-19T16:33:02.265Z,37.50
2019-03-19T16:35:32.129Z,37.90
2019-03-19T16:38:02.346Z,39.00
2019-03-19T16:40:32.250Z,40.70
2019-03-19T16:43:05.337Z,42.60
2019-03-19T16:45:35.051Z,44.60
2019-03-19T16:48:11.702Z,46.50
2019-03-19T16:50:41.231Z,47.80
2019-03-19T16:53:11.046Z,49.70
2019-03-19T16:55:40.992Z,51.10
2019-03-19T16:58:10.506Z,52.40
2019-03-19T17:00:39.978Z,53.10
2019-03-19T17:03:13.780Z,54.00
2019-03-19T17:05:43.606Z,55.00
2019-03-19T17:08:13.262Z,55.70
2019-03-19T17:10:43.016Z,55.90
2019-03-19T17:13:12.512Z,56.80
2019-03-19T17:15:42.084Z,57.90
2019-03-19T17:18:11.680Z,58.50
2019-03-19T17:20:41.192Z,60.00
2019-03-19T17:23:10.607Z,62.90
2019-03-19T17:25:40.079Z,67.00
2019-03-19T17:28:09.700Z,74.00
2019-03-19T17:30:43.707Z,75.40
2019-03-19T17:33:13.381Z,79.60
2019-03-19T17:35:43.132Z,80.30
2019-03-19T17:38:17.926Z,85.20
2019-03-19T17:40:49.257Z,85.90
2019-03-19T17:43:20.792Z,88.10
2019-03-19T17:45:50.288Z,90.30
2019-03-19T17:48:20.422Z,91.10
2019-03-19T17:50:53.466Z,91.60
2019-03-19T17:53:23.167Z,94.30
2019-03-19T17:55:52.785Z,95.90
2019-03-19T17:58:22.298Z,96.10
2019-03-19T18:00:55.742Z,95.40
2019-03-19T18:03:26.996Z,97.40
2019-03-19T18:05:56.560Z,98.50
2019-03-19T18:08:26.157Z,98.70
2019-03-19T18:10:55.739Z,99.40
2019-03-19T18:13:27.680Z,99.90
2019-03-19T18:15:57.446Z,99.90
2019-03-19T18:18:27.183Z,99.90
2019-03-19T18:20:56.786Z,99.90
2019-03-19T18:23:29.390Z,99.90
2019-03-19T18:25:58.309Z,99.90
2019-03-19T18:28:28.087Z,99.90
2019-03-19T18:30:57.990Z,99.90
2019-03-19T18:33:34.206Z,99.90
2019-03-19T18:36:04.850Z,99.90
2019-03-19T18:38:34.470Z,99.90
2019-03-19T18:41:04.333Z,99.90
2019-03-19T18:43:34.144Z,99.90
2019-03-19T18:46:03.683Z,99.90
2019-03-19T18:48:36.525Z,99.90
2019-03-19T18:51:06.400Z,99.90
2019-03-19T18:53:36.107Z,99.90
2019-03-19T18:56:05.651Z,99.90
2019-03-19T18:58:35.235Z,99.90
2019-03-19T19:01:05.217Z,99.90
2019-03-19T19:03:34.744Z,99.90
2019-03-19T19:06:04.536Z,99.90
2019-03-19T19:08:34.736Z,99.90
2019-03-19T19:11:04.465Z,99.90
2019-03-19T19:13:34.295Z,99.90
2019-03-19T19:16:04.412Z,99.90
2019-03-19T19:18:34.371Z,99.90
2019-03-19T19:21:04.431Z,99.90
2019-03-19T19:23:34.249Z,99.90
2019-03-19T19:26:04.152Z,99.90
2019-03-19T19:28:33.548Z,99.90
2019-03-19T19:31:03.346Z,99.90
2019-03-19T19:33:35.773Z,99.90
2019-03-19T19:36:05.415Z,99.90
2019-03-19T19:38:36.522Z,99.90
2019-03-19T19:41:15.813Z,99.90
2019-03-19T19:43:45.509Z,99.90
2019-03-19T19:46:15.399Z,99.90
2019-03-19T19:48:45.831Z,99.90
2019-03-19T19:51:15.591Z,99.90
2019-03-19T19:53:45.406Z,99.90
2019-03-19T19:56:17.510Z,99.90
2019-03-19T19:58:47.269Z,99.90
2019-03-19T20:01:19.116Z,99.90
2019-03-19T20:03:48.908Z,99.90
2019-03-19T20:06:20.275Z,99.90
2019-03-19T20:08:49.833Z,99.90
2019-03-19T20:11:19.405Z,99.90
2019-03-19T20:13:51.849Z,99.90
2019-03-19T20:16:21.837Z,99.90
2019-03-19T20:18:51.459Z,99.90
2019-03-19T20:21:21.327Z,99.90
2019-03-19T20:23:50.962Z,99.90
2019-03-19T20:26:23.073Z,99.90
2019-03-19T20:28:53.000Z,99.90
2019-03-19T20:31:30.453Z,99.90
2019-03-19T20:34:00.543Z,99.90
2019-03-19T20:36:30.267Z,99.90
2019-03-19T20:38:59.872Z,99.90
2019-03-19T20:41:29.305Z,99.90
2019-03-19T20:43:58.941Z,99.90
2019-03-19T20:46:31.598Z,99.90
2019-03-19T20:49:02.817Z,99.90
2019-03-19T20:51:32.436Z,99.90
2019-03-19T20:54:04.824Z,99.90
2019-03-19T20:56:33.936Z,99.90
2019-03-19T20:59:03.490Z,99.90
2019-03-19T21:01:33.248Z,99.90
2019-03-19T21:04:03.102Z,99.90
2019-03-19T21:06:32.608Z,99.90
2019-03-19T21:09:07.123Z,99.90
2019-03-19T21:11:36.659Z,99.90
2019-03-19T21:14:06.583Z,99.90
2019-03-19T21:16:36.515Z,99.90
2019-03-19T21:19:06.556Z,99.90
2019-03-19T21:21:36.345Z,99.90
2019-03-19T21:24:05.925Z,99.90
2019-03-19T21:26:37.266Z,99.90
2019-03-19T21:29:06.841Z,99.90
2019-03-19T21:31:36.364Z,99.90
2019-03-19T21:34:05.903Z,99.90
2019-03-19T21:36:35.457Z,99.90
2019-03-19T21:39:06.650Z,99.90
2019-03-19T21:41:36.419Z,99.90
2019-03-19T21:44:05.999Z,99.90
2019-03-19T21:46:35.571Z,99.90
2019-03-19T21:49:05.557Z,99.90
2019-03-19T21:51:35.366Z,99.90
2019-03-19T21:54:04.958Z,99.90
2019-03-19T21:56:34.456Z,99.90
2019-03-19T21:59:03.990Z,99.90
2019-03-19T22:01:33.552Z,99.90
2019-03-19T22:04:03.589Z,99.90
2019-03-19T22:06:33.396Z,99.90
2019-03-19T22:09:02.918Z,99.90
2019-03-19T22:11:32.472Z,99.90
2019-03-19T22:14:02.664Z,99.90
2019-03-19T22:16:32.368Z,99.90
2019-03-19T22:19:02.613Z,99.90
2019-03-19T22:21:32.054Z,99.90
2019-03-19T22:24:02.627Z,99.90
2019-03-19T22:26:32.415Z,99.90
2019-03-19T22:29:02.630Z,99.90
2019-03-19T22:31:32.403Z,99.90
2019-03-19T22:34:13.503Z,99.90
2019-03-19T22:36:34.724Z,99.90
2019-03-19T22:39:06.787Z,99.90
2019-03-19T22:41:36.437Z,99.90
2019-03-19T22:44:05.875Z,99.90
2019-03-19T22:46:35.442Z,99.90
2019-03-19T22:49:04.884Z,99.90
2019-03-19T22:51:34.437Z,99.90
2019-03-19T22:54:03.814Z,99.90
2019-03-19T22:56:33.772Z,99.90
2019-03-19T22:59:03.723Z,99.90
2019-03-19T23:01:33.456Z,99.90
2019-03-19T23:04:02.907Z,99.90
2019-03-19T23:06:32.483Z,99.90
2019-03-19T23:09:02.744Z,99.90
2019-03-19T23:11:32.490Z,99.90
2019-03-19T23:14:02.691Z,99.90
2019-03-19T23:16:32.422Z,99.90
2019-03-19T23:19:02.700Z,99.90
2019-03-19T23:21:32.454Z,99.90
2019-03-19T23:24:02.722Z,99.90
2019-03-19T23:26:32.448Z,99.90
2019-03-19T23:29:02.742Z,99.90
2019-03-19T23:31:32.097Z,99.90
2019-03-19T23:34:02.760Z,99.90
2019-03-19T23:36:32.465Z,99.90
2019-03-19T23:39:02.740Z,99.90
2019-03-19T23:41:32.416Z,99.90
2019-03-19T23:44:03.241Z,99.90
2019-03-19T23:46:32.668Z,99.90
2019-03-19T23:49:02.844Z,99.90
2019-03-19T23:51:32.505Z,99.90
2019-03-19T23:54:02.798Z,99.90
2019-03-19T23:56:32.439Z,99.90
2019-03-19T23:59:02.793Z,99.90
